Raymond, Georgia
Current Conditions -  °F | °C
As of 7:35 AM on Monday 24 Nov 2014 (Local Time) from KCCO Reporting Station
Scattered Clouds Scattered Clouds  
Wind Chill: 63°   Ceiling: Unl
Heat Index: 63°   Visibility: 10mi
Dew Point: 62°   Wind: 5mph
Humidity: 98%   Direction: 240°WSW
Pressure: 29.79"   Gusts: NA
Location:  33.3877°N, 84.8596°W
Report Text: KCCO 241235Z AUTO 24004KT 10SM SCT017 17/17 A2979 RMK AO2 T01700167
Loading
Personal Weather Stations






























Interactive Weather Map New forecast layout! Learn more

10-Day Weather Forecast

Advertisements
Track Severe Weather on mobile